Terminal Aerodrome Forecast
Issued by NWS

Home | Current Version | Previous Version | Text Only | Print | Product List | Glossary On
Versions: 1 2 3 4 5 6 7 8 9 10 11 12 13 14 15 16 17
521
FTUS43 KMQT 260902 AAA
TAFCMX
TAF AMD
KCMX 260902Z 2609/2706 11008KT 2SM -FZRA BR OVC003
     FM261500 11007KT 2SM BR OVC003
     FM262000 06004KT 4SM BR OVC008=

USA.gov is the U.S. government's official web portal to all federal, state and local government web resources and services.